Time;durP1;ratioP1;P1;durP2;ratioP2;P2;SDS_P1;SDS_P2;PMS_P1;PMS_P2;Temp;Humidity;BMP_temperature;BMP_pressure;BME280_temperature;BME280_humidity;BME280_pressure;Samples;Min_cycle;Max_cycle;Signal;HPM_P1;HPM_P2
2023/06/02 00:01:03;;;;;;;1999.90;999.90;;;;;;;16.43;100.00;95105.56;5064769;28;20193;-57
2023/06/02 00:03:30;;;;;;;1999.90;999.90;;;;;;;16.37;100.00;95112.88;5064588;28;20213;-57
2023/06/02 00:05:59;;;;;;;1999.90;999.90;;;;;;;16.35;100.00;95112.53;5064901;28;20193;-56
2023/06/02 00:08:27;;;;;;;1999.90;999.90;;;;;;;16.26;100.00;95115.22;5064685;28;20212;-57
2023/06/02 00:10:53;;;;;;;1999.90;999.90;;;;;;;16.22;100.00;95114.53;5064680;28;20200;-57
2023/06/02 00:13:19;;;;;;;1999.90;999.90;;;;;;;16.18;100.00;95115.91;5048169;28;20233;-57
2023/06/02 00:15:44;;;;;;;1999.90;999.90;;;;;;;16.13;100.00;95106.22;5064665;28;20323;-57
2023/06/02 00:18:10;;;;;;;1999.90;999.90;;;;;;;16.14;100.00;95101.47;5047833;28;20200;-57
2023/06/02 00:20:36;;;;;;;1999.90;999.90;;;;;;;16.12;100.00;95110.19;5064969;28;20197;-57
2023/06/02 00:23:02;;;;;;;1999.90;999.90;;;;;;;16.10;100.00;95095.31;5048198;28;20198;-57
2023/06/02 00:25:28;;;;;;;1999.90;999.90;;;;;;;16.10;100.00;95101.59;5047649;28;20198;-57
2023/06/02 00:27:53;;;;;;;1999.90;999.90;;;;;;;16.02;100.00;95100.28;5064230;28;20217;-56
2023/06/02 00:30:19;;;;;;;1999.90;999.90;;;;;;;16.00;100.00;95099.94;5047987;28;20293;-58
2023/06/02 00:32:44;;;;;;;1999.90;999.90;;;;;;;15.99;100.00;95101.19;5047594;28;20212;-57
2023/06/02 00:35:10;;;;;;;1999.90;999.90;;;;;;;15.92;100.00;95097.91;5064130;28;20212;-57
2023/06/02 00:37:35;;;;;;;1999.90;999.90;;;;;;;15.91;100.00;95101.84;5047507;28;20189;-57
2023/06/02 00:40:00;;;;;;;1999.90;999.90;;;;;;;15.79;100.00;95108.94;5064119;28;20196;-57
2023/06/02 00:42:26;;;;;;;1999.90;999.90;;;;;;;15.78;100.00;95118.41;5064476;28;20220;-57
2023/06/02 00:44:51;;;;;;;1999.90;999.90;;;;;;;15.70;100.00;95106.09;5064489;28;20224;-57
2023/06/02 00:47:16;;;;;;;1999.90;999.90;;;;;;;15.70;100.00;95106.09;5064318;28;20255;-57
2023/06/02 00:49:42;;;;;;;1999.90;999.90;;;;;;;15.53;100.00;95107.44;5047586;28;20213;-57
2023/06/02 00:52:09;;;;;;;1999.90;999.90;;;;;;;15.58;100.00;95104.13;5047147;28;20199;-57
2023/06/02 00:54:35;;;;;;;1999.90;999.90;;;;;;;15.66;100.00;95102.69;5063842;28;20201;-57
2023/06/02 00:57:00;;;;;;;1999.90;999.90;;;;;;;15.63;100.00;95111.81;5063756;28;20197;-55
2023/06/02 00:59:25;;;;;;;1999.90;999.90;;;;;;;15.60;100.00;95096.22;5063954;28;20308;-57
2023/06/02 01:01:53;;;;;;;1999.90;999.90;;;;;;;15.50;100.00;95102.03;5046862;28;20200;-57
2023/06/02 01:04:20;;;;;;;1999.90;999.90;;;;;;;15.60;100.00;95100.94;5063683;28;20193;-58
2023/06/02 01:06:48;;;;;;;1999.90;999.90;;;;;;;15.59;100.00;95091.88;5063571;28;20197;-57
2023/06/02 01:09:18;;;;;;;1999.90;999.90;;;;;;;15.49;100.00;95104.03;5063838;28;20235;-57
2023/06/02 01:11:45;;;;;;;1999.90;999.90;;;;;;;15.34;100.00;95097.38;5063968;28;20177;-57
2023/06/02 01:14:10;;;;;;;1999.90;999.90;;;;;;;15.34;100.00;95094.63;5064167;28;20201;-57
2023/06/02 01:16:38;;;;;;;1999.90;999.90;;;;;;;15.32;100.00;95091.56;5047255;28;20205;-57
2023/06/02 01:19:13;;;;;;;1999.90;999.90;;;;;;;15.36;100.00;95094.22;5046963;28;20205;-57
2023/06/02 01:21:39;;;;;;;1999.90;999.90;;;;;;;15.25;100.00;95080.78;5063995;28;20250;-57
2023/06/02 01:24:06;;;;;;;1999.90;999.90;;;;;;;15.15;100.00;95087.38;5063414;28;20193;-57
2023/06/02 01:26:34;;;;;;;1999.90;999.90;;;;;;;15.17;100.00;95084.97;5063456;28;20200;-58
2023/06/02 01:29:00;;;;;;;1999.90;999.90;;;;;;;15.14;100.00;95088.59;5046902;28;20210;-58
2023/06/02 01:31:32;;;;;;;1999.90;999.90;;;;;;;15.04;100.00;95081.44;5047072;28;20189;-57
2023/06/02 01:34:10;;;;;;;1999.90;999.90;;;;;;;15.12;100.00;95084.75;5063946;28;20216;-58
2023/06/02 01:36:38;;;;;;;1999.90;999.90;;;;;;;15.06;100.00;95084.53;5064083;28;20258;-57
2023/06/02 01:39:06;;;;;;;1999.90;999.90;;;;;;;15.02;100.00;95088.59;5063679;28;20306;-56
2023/06/02 01:41:34;;;;;;;1999.90;999.90;;;;;;;14.97;100.00;95084.38;5046946;28;20197;-57
2023/06/02 01:44:00;;;;;;;1999.90;999.90;;;;;;;14.90;100.00;95086.59;5046656;28;20284;-57
2023/06/02 01:46:26;;;;;;;1999.90;999.90;;;;;;;14.91;100.00;95088.91;5063515;28;20236;-58
2023/06/02 01:48:53;;;;;;;1999.90;999.90;;;;;;;14.83;100.00;95082.06;5046394;28;20213;-57
2023/06/02 01:51:19;;;;;;;1999.90;999.90;;;;;;;14.84;100.00;95083.63;5063274;28;20193;-58
2023/06/02 01:53:44;;;;;;;1999.90;999.90;;;;;;;14.78;100.00;95074.38;5063102;28;20198;-58
2023/06/02 01:56:10;;;;;;;1999.90;999.90;;;;;;;14.61;100.00;95070.13;5063435;28;20198;-58
2023/06/02 01:58:36;;;;;;;1999.90;999.90;;;;;;;14.49;100.00;95073.63;5046675;28;20198;-57
2023/06/02 02:01:02;;;;;;;1999.90;999.90;;;;;;;14.49;100.00;95067.38;5046884;28;20239;-57
2023/06/02 02:03:29;;;;;;;1999.90;999.90;;;;;;;14.46;100.00;95069.00;5046204;28;20215;-58
2023/06/02 02:05:55;;;;;;;1999.90;999.90;;;;;;;14.40;100.00;95076.25;5046923;28;20190;-57
2023/06/02 02:08:21;;;;;;;1999.90;999.90;;;;;;;14.39;100.00;95074.69;5046438;28;20201;-58
2023/06/02 02:10:46;;;;;;;1999.90;999.90;;;;;;;14.47;100.00;95076.06;5046343;28;20194;-57
2023/06/02 02:13:12;;;;;;;1999.90;999.90;;;;;;;14.51;100.00;95078.69;5046608;28;20271;-57
2023/06/02 02:15:37;;;;;;;1999.90;999.90;;;;;;;14.40;100.00;95070.00;5049304;28;20232;-58
2023/06/02 02:18:03;;;;;;;1999.90;999.90;;;;;;;14.61;100.00;95070.13;5050166;28;20197;-57
2023/06/02 02:20:28;;;;;;;1999.90;999.90;;;;;;;14.59;100.00;95078.06;5066648;28;20212;-57
2023/06/02 02:22:54;;;;;;;1999.90;999.90;;;;;;;14.53;100.00;95077.06;5066649;28;20189;-57
2023/06/02 02:25:19;;;;;;;1999.90;999.90;;;;;;;14.51;100.00;95076.72;5050162;28;20213;-57
2023/06/02 02:27:45;;;;;;;1999.90;999.90;;;;;;;14.45;100.00;95072.19;5066742;28;20209;-57
2023/06/02 02:30:10;;;;;;;1999.90;999.90;;;;;;;14.39;100.00;95077.44;5066424;28;20209;-57
2023/06/02 02:32:40;;;;;;;1999.90;999.90;;;;;;;14.37;100.00;95066.13;5066566;28;20190;-57
2023/06/02 02:35:06;;;;;;;1999.90;999.90;;;;;;;14.38;100.00;95072.41;5067007;28;20170;-57
2023/06/02 02:37:31;;;;;;;1999.90;999.90;;;;;;;14.37;100.00;95066.13;5066875;28;20227;-57
2023/06/02 02:39:57;;;;;;;1999.90;999.90;;;;;;;14.34;100.00;95061.50;5067090;28;20194;-57
2023/06/02 02:42:22;;;;;;;1999.90;999.90;;;;;;;14.35;100.00;95065.78;5066323;28;20210;-57
2023/06/02 02:44:48;;;;;;;1999.90;999.90;;;;;;;14.37;100.00;95060.66;5066259;28;20234;-57
2023/06/02 02:47:13;;;;;;;1999.90;999.90;;;;;;;14.45;100.00;95063.94;5066200;28;20212;-57
2023/06/02 02:49:39;;;;;;;1999.90;999.90;;;;;;;14.33;100.00;95059.97;5049827;28;20213;-58
2023/06/02 02:52:04;;;;;;;1999.90;999.90;;;;;;;14.24;100.00;95051.59;5066207;28;20201;-57
2023/06/02 02:54:30;;;;;;;1999.90;999.90;;;;;;;14.16;100.00;95052.22;5066003;28;20319;-57
2023/06/02 02:56:55;;;;;;;1999.90;999.90;;;;;;;14.15;100.00;95051.44;5066025;28;20198;-58
2023/06/02 02:59:21;;;;;;;1999.90;999.90;;;;;;;14.35;100.00;95054.81;5066116;28;20264;-58
2023/06/02 03:01:47;;;;;;;1999.90;999.90;;;;;;;14.31;100.00;95051.38;5049350;28;20233;-57
2023/06/02 03:04:18;;;;;;;1999.90;999.90;;;;;;;14.32;100.00;95055.69;5049705;28;20205;-58
2023/06/02 03:06:45;;;;;;;1999.90;999.90;;;;;;;14.34;100.00;95053.28;5049707;28;20193;-57
2023/06/02 03:09:11;;;;;;;1999.90;999.90;;;;;;;14.34;100.00;95045.03;5066172;28;20217;-57
2023/06/02 03:11:36;;;;;;;1999.90;999.90;;;;;;;14.34;100.00;95047.00;5066284;28;20197;-58
2023/06/02 03:14:02;;;;;;;1999.90;999.90;;;;;;;14.37;100.00;95055.16;5065667;28;20193;-57
2023/06/02 03:16:28;;;;;;;1999.90;999.90;;;;;;;14.39;100.00;95052.72;5065745;28;20224;-57
2023/06/02 03:18:54;;;;;;;1999.90;999.90;;;;;;;14.37;100.00;95052.41;5065451;28;20284;-58
2023/06/02 03:21:19;;;;;;;1999.90;999.90;;;;;;;14.39;100.00;95055.47;5065747;28;20213;-59
2023/06/02 03:23:49;;;;;;;1999.90;999.90;;;;;;;14.43;100.00;95055.38;5065691;28;20198;-58
2023/06/02 03:26:14;;;;;;;1999.90;999.90;;;;;;;14.41;100.00;95050.31;5048811;28;20197;-57
2023/06/02 03:28:41;;;;;;;1999.90;999.90;;;;;;;14.42;100.00;95057.34;5049233;28;20210;-57
2023/06/02 03:31:07;;;;;;;1999.90;999.90;;;;;;;14.48;100.00;95055.63;5065836;28;20276;-58
2023/06/02 03:33:32;;;;;;;1999.90;999.90;;;;;;;14.57;100.00;95063.97;5065731;28;20185;-57
2023/06/02 03:35:57;;;;;;;1999.90;999.90;;;;;;;14.68;100.00;95064.44;5065670;28;20193;-57
2023/06/02 03:38:23;;;;;;;1999.90;999.90;;;;;;;14.85;100.00;95063.16;5065380;28;20193;-57
2023/06/02 03:40:48;;;;;;;1999.90;999.90;;;;;;;15.01;100.00;95065.03;5064958;28;20240;-57
2023/06/02 03:43:13;;;;;;;1999.90;999.90;;;;;;;15.15;100.00;95076.38;5064995;28;20198;-58
2023/06/02 03:45:39;;;;;;;1999.90;999.90;;;;;;;15.32;100.00;95066.03;5065047;28;20209;-58
2023/06/02 03:48:05;;;;;;;1999.90;999.90;;;;;;;15.54;100.00;95073.19;5065534;28;20193;-58
2023/06/02 03:50:30;;;;;;;1999.90;999.90;;;;;;;15.78;100.00;95079.84;5064922;28;20209;-57
2023/06/02 03:52:55;;;;;;;1999.90;999.90;;;;;;;15.94;100.00;95090.72;5048436;28;20212;-58
2023/06/02 03:55:22;;;;;;;1999.90;999.90;;;;;;;16.19;100.00;95095.38;5065045;28;20220;-58
2023/06/02 03:57:47;;;;;;;1999.90;999.90;;;;;;;16.32;100.00;95085.84;5064959;28;20224;-57
2023/06/02 04:00:13;;;;;;;1999.90;999.90;;;;;;;16.59;100.00;95098.31;5065166;28;20369;-58
2023/06/02 04:02:38;;;;;;;1999.90;999.90;;;;;;;16.85;100.00;95100.50;5048030;28;20217;-58
2023/06/02 04:05:05;;;;;;;1999.90;999.90;;;;;;;17.13;100.00;95106.94;5048051;28;20174;-58
2023/06/02 04:07:30;;;;;;;1999.90;999.90;;;;;;;17.41;100.00;95105.88;5065065;28;20233;-58
2023/06/02 04:09:55;;;;;;;1999.90;999.90;;;;;;;17.61;100.00;95096.00;5048287;28;20217;-58
2023/06/02 04:12:21;;;;;;;1999.90;999.90;;;;;;;17.85;100.00;95094.22;5064894;28;20225;-58
2023/06/02 04:14:46;;;;;;;1999.90;999.90;;;;;;;18.07;100.00;95092.09;5048065;28;20240;-58
2023/06/02 04:17:11;;;;;;;1999.90;999.90;;;;;;;18.44;100.00;95095.69;5064624;28;20194;-57
2023/06/02 04:19:37;;;;;;;1999.90;999.90;;;;;;;18.68;100.00;95099.38;5064408;28;20247;-58
2023/06/02 04:22:03;;;;;;;1999.90;999.90;;;;;;;18.70;100.00;95097.69;5064509;28;20194;-58
2023/06/02 04:24:29;;;;;;;1999.90;999.90;;;;;;;18.97;100.00;95110.69;5047742;28;20268;-57
2023/06/02 04:26:54;;;;;;;1999.90;999.90;;;;;;;19.32;100.00;95112.66;5064404;28;20198;-57
2023/06/02 04:29:19;;;;;;;1999.90;999.90;;;;;;;19.65;100.00;95115.47;5047648;28;20262;-58
2023/06/02 04:31:50;;;;;;;1999.90;999.90;;;;;;;19.94;100.00;95115.63;5064174;28;20193;-57
2023/06/02 04:34:15;;;;;;;1999.90;999.90;;;;;;;19.78;100.00;95107.72;5064428;28;20279;-58
2023/06/02 04:36:41;;;;;;;1999.90;999.90;;;;;;;20.06;100.00;95108.34;5063946;28;20214;-58
2023/06/02 04:39:08;;;;;;;1999.90;999.90;;;;;;;20.67;100.00;95107.59;5064444;28;20196;-58
2023/06/02 04:41:34;;;;;;;1999.90;999.90;;;;;;;20.91;100.00;95106.28;5064476;28;20235;-58
2023/06/02 04:44:00;;;;;;;1999.90;999.90;;;;;;;21.00;100.00;95111.81;5064505;28;20197;-58
2023/06/02 04:46:28;;;;;;;1999.90;999.90;;;;;;;21.04;100.00;95117.94;5063948;28;20269;-58
2023/06/02 04:48:54;;;;;;;1999.90;999.90;;;;;;;21.58;100.00;95109.03;5047447;28;20205;-58
2023/06/02 04:51:29;;;;;;;1999.90;999.90;;;;;;;21.67;100.00;95117.22;5047238;28;20189;-57
2023/06/02 04:53:54;;;;;;;1999.90;999.90;;;;;;;21.94;100.00;95119.72;5063869;28;20239;-57
2023/06/02 04:56:20;;;;;;;1999.90;999.90;;;;;;;21.97;100.00;95118.72;5064330;28;20194;-57
2023/06/02 04:58:46;;;;;;;1999.90;999.90;;;;;;;22.44;100.00;95110.03;5063580;28;20216;-58
2023/06/02 05:01:11;;;;;;;1999.90;999.90;;;;;;;22.83;100.00;95112.56;5047029;28;20261;-59
2023/06/02 05:03:36;;;;;;;1999.90;999.90;;;;;;;22.78;100.00;95108.44;5047035;28;20190;-56
2023/06/02 05:06:02;;;;;;;1999.90;999.90;;;;;;;23.12;100.00;95112.34;5047240;28;20190;-58
2023/06/02 05:08:27;;;;;;;1999.90;999.90;;;;;;;23.33;100.00;95119.41;5064018;28;20197;-58
2023/06/02 05:10:53;;;;;;;1999.90;999.90;;;;;;;23.65;100.00;95116.16;5063701;28;20194;-58
2023/06/02 05:13:18;;;;;;;1999.90;999.90;;;;;;;23.97;100.00;95114.16;5047002;28;20209;-58
2023/06/02 05:15:46;;;;;;;1999.90;999.90;;;;;;;24.38;100.00;95109.81;5063499;28;20194;-58
2023/06/02 05:18:14;;;;;;;1999.90;999.90;;;;;;;24.68;100.00;95111.00;5063674;28;20199;-58
2023/06/02 05:20:41;;;;;;;1999.90;999.90;;;;;;;24.35;100.00;95124.78;5063687;28;20189;-58
2023/06/02 05:23:06;;;;;;;1999.90;999.90;;;;;;;24.14;100.00;95124.16;5063275;28;20189;-58
2023/06/02 05:25:32;;;;;;;1999.90;999.90;;;;;;;24.64;100.00;95116.84;5047008;28;20197;-58
2023/06/02 05:27:57;;;;;;;1999.90;999.90;;;;;;;24.86;100.00;95110.56;5063667;28;20269;-57
2023/06/02 05:30:22;;;;;;;1999.90;999.90;;;;;;;25.16;100.00;95118.03;5063489;28;20217;-58
2023/06/02 05:32:48;;;;;;;1999.90;999.90;;;;;;;25.58;97.05;95119.13;5063541;28;20170;-58
2023/06/02 05:35:13;;;;;;;1999.90;999.90;;;;;;;25.91;90.27;95125.50;5063792;28;20205;-58
2023/06/02 05:37:39;;;;;;;1999.90;999.90;;;;;;;26.52;86.44;95129.00;5063568;28;20190;-59
2023/06/02 05:40:05;;;;;;;1999.90;999.90;;;;;;;27.13;80.95;95126.72;5063988;28;20201;-58
2023/06/02 05:42:30;;;;;;;1999.90;999.90;;;;;;;27.22;80.18;95123.66;5063725;28;20201;-58
2023/06/02 05:44:55;;;;;;;1999.90;999.90;;;;;;;27.59;76.33;95118.31;5063744;28;20193;-58
2023/06/02 05:47:20;;;;;;;1999.90;999.90;;;;;;;27.83;74.36;95121.22;5063176;28;20298;-58
2023/06/02 05:49:46;;;;;;;1999.90;999.90;;;;;;;26.80;77.57;95132.50;5064724;28;20284;-58
2023/06/02 05:52:11;;;;;;;1999.90;999.90;;;;;;;26.82;77.57;95135.56;5067219;28;20200;-58
2023/06/02 05:54:37;;;;;;;1999.90;999.90;;;;;;;26.91;80.18;95134.50;5067432;28;20201;-58
2023/06/02 05:57:03;;;;;;;1999.90;999.90;;;;;;;26.48;78.65;95128.47;5050505;28;20262;-59
2023/06/02 05:59:28;;;;;;;1999.90;999.90;;;;;;;26.53;78.96;95135.34;5067373;28;20193;-58
2023/06/02 06:01:53;;;;;;;1999.90;999.90;;;;;;;27.28;73.57;95137.66;5067118;28;20189;-59
2023/06/02 06:04:19;;;;;;;1999.90;999.90;;;;;;;27.67;70.38;95133.31;5067222;28;20189;-59
2023/06/02 06:06:44;;;;;;;1999.90;999.90;;;;;;;27.92;67.70;95129.31;5050739;28;20198;-59
2023/06/02 06:09:10;;;;;;;1999.90;999.90;;;;;;;28.42;63.09;95128.09;5050680;28;20205;-59
2023/06/02 06:11:36;;;;;;;1999.90;999.90;;;;;;;27.97;65.95;95142.53;5067049;28;20201;-58
2023/06/02 06:14:02;;;;;;;1999.90;999.90;;;;;;;27.92;64.43;95137.75;5066858;28;20194;-58
2023/06/02 06:16:28;;;;;;;1999.90;999.90;;;;;;;28.57;62.46;95137.66;5066724;28;20236;-59
2023/06/02 06:18:55;;;;;;;1999.90;999.90;;;;;;;28.03;63.64;95148.13;5050120;28;20190;-59
2023/06/02 06:21:20;;;;;;;1999.90;999.90;;;;;;;29.36;59.53;95147.47;5066843;28;20208;-59
2023/06/02 06:23:45;;;;;;;1999.90;999.90;;;;;;;29.48;57.00;95146.03;5049891;28;20186;-59
2023/06/02 06:26:11;;;;;;;1999.90;999.90;;;;;;;29.28;56.88;95143.75;5050101;28;20221;-59
2023/06/02 06:28:36;;;;;;;1999.90;999.90;;;;;;;29.06;59.08;95144.03;5050389;28;20228;-59
2023/06/02 06:31:01;;;;;;;1999.90;999.90;;;;;;;29.81;55.11;95154.78;5066646;28;20194;-59
2023/06/02 06:33:29;;;;;;;1999.90;999.90;;;;;;;29.80;53.96;95166.59;5066708;28;20217;-58
2023/06/02 06:35:54;;;;;;;1999.90;999.90;;;;;;;29.76;55.81;95161.28;5050326;28;20177;-59
2023/06/02 06:38:19;;;;;;;1999.90;999.90;;;;;;;30.89;49.70;95163.22;5049981;28;20261;-59
2023/06/02 06:40:45;;;;;;;1999.90;999.90;;;;;;;30.46;50.09;95160.66;5066716;28;20197;-59
2023/06/02 06:43:10;;;;;;;1999.90;999.90;;;;;;;29.90;51.73;95167.72;5066658;28;20206;-59
2023/06/02 06:45:35;;;;;;;1999.90;999.90;;;;;;;30.07;50.94;95165.38;5066570;28;20257;-59
2023/06/02 06:48:01;;;;;;;1999.90;999.90;;;;;;;30.22;50.20;95165.66;5049665;28;20194;-59
2023/06/02 06:50:26;;;;;;;1999.90;999.90;;;;;;;30.60;48.98;95164.25;5066514;28;20243;-59
2023/06/02 06:52:51;;;;;;;1999.90;999.90;;;;;;;30.63;47.59;95168.81;5066403;28;20282;-59
2023/06/02 06:55:17;;;;;;;1999.90;999.90;;;;;;;30.69;48.08;95161.00;5066017;28;20193;-59
2023/06/02 06:57:42;;;;;;;1999.90;999.90;;;;;;;30.94;47.47;95165.16;5049840;28;20225;-59
2023/06/02 07:00:08;;;;;;;1999.90;999.90;;;;;;;31.24;46.68;95165.56;5049038;28;20194;-59
2023/06/02 07:02:33;;;;;;;1999.90;999.90;;;;;;;31.09;46.06;95171.00;5065714;28;20202;-59
2023/06/02 07:04:59;;;;;;;1999.90;999.90;;;;;;;31.37;44.50;95174.06;5065805;28;20194;-59
2023/06/02 07:07:24;;;;;;;1999.90;999.90;;;;;;;31.17;45.88;95178.28;5066403;28;20174;-59
2023/06/02 07:09:50;;;;;;;1999.90;999.90;;;;;;;30.69;44.51;95183.56;5049610;28;20213;-59
2023/06/02 07:12:15;;;;;;;1999.90;999.90;;;;;;;31.54;44.16;95177.31;5049647;28;20299;-59
2023/06/02 07:14:40;;;;;;;1999.90;999.90;;;;;;;31.95;44.53;95171.75;5066202;28;20205;-61
2023/06/02 07:17:06;;;;;;;1999.90;999.90;;;;;;;32.57;41.78;95169.72;5065667;28;20185;-61
2023/06/02 07:19:31;;;;;;;1999.90;999.90;;;;;;;33.51;39.83;95165.06;5049136;28;20198;-61
2023/06/02 07:21:57;;;;;;;1999.90;999.90;;;;;;;34.28;38.45;95167.59;5065772;28;20189;-60
2023/06/02 07:24:22;;;;;;;1999.90;999.90;;;;;;;33.83;37.35;95168.25;5048915;28;20209;-60
2023/06/02 07:26:47;;;;;;;1999.90;999.90;;;;;;;34.03;37.62;95174.34;5065437;28;20193;-60
2023/06/02 07:29:13;;;;;;;1999.90;999.90;;;;;;;34.19;36.77;95173.06;5065398;28;20209;-60
2023/06/02 07:31:38;;;;;;;1999.90;999.90;;;;;;;34.91;36.28;95165.75;5048580;28;20193;-61
2023/06/02 07:34:03;;;;;;;1999.90;999.90;;;;;;;34.99;35.42;95167.25;5065263;28;20194;-60
2023/06/02 07:36:29;;;;;;;1999.90;999.90;;;;;;;34.42;35.59;95179.56;5048812;28;20269;-60
2023/06/02 07:38:54;;;;;;;1999.90;999.90;;;;;;;34.55;36.14;95171.59;5048529;28;20272;-59
2023/06/02 07:41:20;;;;;;;1999.90;999.90;;;;;;;34.76;35.25;95177.09;5049041;28;20200;-60
2023/06/02 07:43:46;;;;;;;1999.90;999.90;;;;;;;35.41;34.81;95178.94;5065610;28;20197;-60
2023/06/02 07:46:11;;;;;;;1999.90;999.90;;;;;;;34.73;33.87;95178.25;5065716;28;20221;-60
2023/06/02 07:48:37;;;;;;;1999.90;999.90;;;;;;;33.51;36.62;95170.72;5049045;28;20193;-60
2023/06/02 07:51:03;;;;;;;1999.90;999.90;;;;;;;34.88;35.85;95166.91;5065328;28;20240;-59
2023/06/02 07:53:29;;;;;;;1999.90;999.90;;;;;;;34.10;35.91;95173.59;5065278;28;20190;-60
2023/06/02 07:55:55;;;;;;;1999.90;999.90;;;;;;;34.66;34.56;95165.56;5065021;28;20229;-60
2023/06/02 07:58:20;;;;;;;1999.90;999.90;;;;;;;34.51;35.56;95161.94;5048215;28;20190;-60
2023/06/02 08:00:45;;;;;;;1999.90;999.90;;;;;;;34.69;34.65;95166.50;5064914;28;20243;-60
2023/06/02 08:03:11;;;;;;;1999.90;999.90;;;;;;;34.77;35.31;95164.44;5065351;28;20206;-60
2023/06/02 08:05:36;;;;;;;1999.90;999.90;;;;;;;36.23;33.25;95166.47;5065041;28;20266;-60
2023/06/02 08:08:02;;;;;;;1999.90;999.90;;;;;;;35.35;33.64;95181.22;5064648;28;20252;-61
2023/06/02 08:10:28;;;;;;;1999.90;999.90;;;;;;;36.04;31.38;95171.88;5065492;28;20178;-61
2023/06/02 08:12:53;;;;;;;1999.90;999.90;;;;;;;36.16;31.87;95161.56;5047476;28;20193;-60
2023/06/02 08:15:18;;;;;;;1999.90;999.90;;;;;;;36.06;31.99;95169.22;5065174;28;20272;-60
2023/06/02 08:17:44;;;;;;;1999.90;999.90;;;;;;;35.96;32.73;95162.63;5047830;28;20198;-61
2023/06/02 08:20:09;;;;;;;1999.90;999.90;;;;;;;37.02;31.15;95160.53;5064616;28;20205;-61
2023/06/02 08:22:36;;;;;;;1999.90;999.90;;;;;;;36.85;30.66;95159.78;5064491;28;20197;-60
2023/06/02 08:25:02;;;;;;;1999.90;999.90;;;;;;;36.22;32.21;95160.00;5064245;28;20212;-60
2023/06/02 08:27:28;;;;;;;1999.90;999.90;;;;;;;35.96;32.47;95159.78;5048185;28;20197;-61
2023/06/02 08:29:56;;;;;;;1999.90;999.90;;;;;;;35.42;32.72;95166.22;5064266;28;20204;-61
2023/06/02 08:32:22;;;;;;;1999.90;999.90;;;;;;;34.71;33.88;95158.19;5047536;28;20194;-61
2023/06/02 08:34:54;;;;;;;1999.90;999.90;;;;;;;34.31;34.26;95149.44;5064197;28;20190;-61
2023/06/02 08:37:20;;;;;;;1999.90;999.90;;;;;;;35.87;32.67;95151.88;5064331;28;20201;-61
2023/06/02 08:39:47;;;;;;;1999.90;999.90;;;;;;;36.46;31.16;95150.00;5047014;28;20236;-61
2023/06/02 08:42:14;;;;;;;1999.90;999.90;;;;;;;35.76;30.92;95157.97;5064166;28;20194;-60
2023/06/02 08:44:41;;;;;;;1999.90;999.90;;;;;;;35.82;31.87;95162.13;5064504;28;20265;-61
2023/06/02 08:47:12;;;;;;;1999.90;999.90;;;;;;;35.96;31.92;95154.09;5047596;28;20232;-60
2023/06/02 08:49:41;;;;;;;1999.90;999.90;;;;;;;36.57;30.59;95155.22;5064518;28;20239;-60
2023/06/02 08:52:12;;;;;;;1999.90;999.90;;;;;;;35.45;32.36;95154.50;5063943;28;20197;-60
2023/06/02 08:54:39;;;;;;;1999.90;999.90;;;;;;;35.61;32.71;95153.09;5064063;28;20194;-60
2023/06/02 08:57:05;;;;;;;1999.90;999.90;;;;;;;36.44;31.05;95155.50;5064458;28;20209;-60
2023/06/02 08:59:31;;;;;;;1999.90;999.90;;;;;;;35.61;32.59;95152.34;5063734;28;20206;-60
2023/06/02 09:01:56;;;;;;;1999.90;999.90;;;;;;;36.31;32.04;95167.19;5047304;28;20186;-64
2023/06/02 09:04:22;;;;;;;1999.90;999.90;;;;;;;34.68;33.44;95154.41;5063786;28;20228;-60
2023/06/02 09:06:50;;;;;;;1999.90;999.90;;;;;;;34.07;33.75;95158.47;5063980;28;20197;-60
2023/06/02 09:09:16;;;;;;;1999.90;999.90;;;;;;;33.65;35.23;95160.03;5064137;28;20185;-60
2023/06/02 09:11:58;;;;;;;1999.90;999.90;;;;;;;34.94;33.82;95158.94;5047550;28;20204;-61
2023/06/02 09:14:23;;;;;;;1999.90;999.90;;;;;;;33.03;34.53;95165.19;5063555;28;20212;-59
2023/06/02 09:16:49;;;;;;;1999.90;999.90;;;;;;;33.94;34.57;95161.50;5046961;28;20201;-60
2023/06/02 09:19:14;;;;;;;1999.90;999.90;;;;;;;33.63;35.04;95166.28;5063526;28;20213;-60
2023/06/02 09:21:40;;;;;;;1999.90;999.90;;;;;;;34.52;33.34;95166.31;5063649;28;20197;-61
2023/06/02 09:24:05;;;;;;;1999.90;999.90;;;;;;;34.71;33.10;95161.03;5063317;28;20197;-60
2023/06/02 09:26:31;;;;;;;1999.90;999.90;;;;;;;34.41;33.88;95161.03;5046945;28;20200;-60
2023/06/02 09:29:12;;;;;;;1999.90;999.90;;;;;;;33.83;34.21;95159.75;5063785;28;20264;-60
2023/06/02 09:31:49;;;;;;;1999.90;999.90;;;;;;;33.83;34.34;95168.25;5063775;28;20225;-59
2023/06/02 09:34:15;;;;;;;1999.90;999.90;;;;;;;33.36;34.19;95159.34;5063535;28;20189;-60
2023/06/02 09:36:42;;;;;;;1999.90;999.90;;;;;;;33.12;35.49;95161.81;5063529;28;20281;-60
2023/06/02 09:39:10;;;;;;;1999.90;999.90;;;;;;;34.23;33.79;95167.78;5063386;28;20202;-60
2023/06/02 09:41:39;;;;;;;1999.90;999.90;;;;;;;33.88;33.84;95160.13;5046804;28;20198;-60
2023/06/02 09:44:14;;;;;;;1999.90;999.90;;;;;;;34.40;33.46;95163.09;5063308;28;20201;-60
2023/06/02 09:46:41;;;;;;;1999.90;999.90;;;;;;;33.89;35.31;95164.50;5063454;28;20197;-60
2023/06/02 09:49:07;;;;;;;1999.90;999.90;;;;;;;34.03;35.40;95168.66;5063498;28;20264;-60
2023/06/02 09:51:33;;;;;;;1999.90;999.90;;;;;;;32.63;37.40;95163.94;5063863;28;20205;-63
2023/06/02 09:53:59;;;;;;;1999.90;999.90;;;;;;;32.99;36.35;95164.78;5047104;28;20170;-60
2023/06/02 09:56:27;;;;;;;1999.90;999.90;;;;;;;32.90;37.67;95168.88;5047105;28;20273;-60
2023/06/02 09:58:53;;;;;;;1999.90;999.90;;;;;;;33.74;35.79;95154.59;5063676;28;20228;-60
2023/06/02 10:01:18;;;;;;;1999.90;999.90;;;;;;;33.14;36.67;95171.28;5063582;28;20274;-60
2023/06/02 10:03:44;;;;;;;1999.90;999.90;;;;;;;31.88;40.61;95163.97;5063254;28;20210;-60
2023/06/02 10:06:22;;;;;;;1999.90;999.90;;;;;;;31.56;42.30;95166.19;5063263;28;20200;-60
2023/06/02 10:09:02;;;;;;;1999.90;999.90;;;;;;;32.11;40.10;95161.38;5046441;28;20228;-60
2023/06/02 10:11:43;;;;;;;1999.90;999.90;;;;;;;31.80;41.77;95165.94;5046509;28;20189;-60
2023/06/02 10:14:53;;;;;;;1999.90;999.90;;;;;;;33.24;39.94;95154.53;5063532;28;20241;-60
2023/06/02 10:17:33;;;;;;;1999.90;999.90;;;;;;;33.86;36.99;95159.94;5021532;28;20233;-61
2023/06/02 10:20:08;;;;;;;1999.90;999.90;;;;;;;33.74;37.34;95154.59;5046094;28;20205;-60
2023/06/02 10:22:48;;;;;;;1999.90;999.90;;;;;;;33.71;36.83;95149.28;5046435;28;20201;-60
2023/06/02 10:25:41;;;;;;;1999.90;999.90;;;;;;;33.08;37.90;95158.59;5046248;28;20189;-63
2023/06/02 10:28:08;;;;;;;1999.90;999.90;;;;;;;32.04;39.35;95157.16;5046748;28;20225;-60
2023/06/02 10:30:35;;;;;;;1999.90;999.90;;;;;;;32.30;39.67;95151.34;5046706;28;20197;-60
2023/06/02 10:33:00;;;;;;;1999.90;999.90;;;;;;;32.33;38.93;95149.53;5063221;28;20193;-60
2023/06/02 10:35:58;;;;;;;1999.90;999.90;;;;;;;31.68;38.90;95153.34;5064062;28;20194;-60
2023/06/02 10:38:26;;;;;;;1999.90;999.90;;;;;;;31.99;37.69;95143.91;5066542;28;20212;-60
2023/06/02 10:40:52;;;;;;;1999.90;999.90;;;;;;;31.09;39.23;95151.25;5066514;28;20182;-59
2023/06/02 10:43:17;;;;;;;1999.90;999.90;;;;;;;31.70;34.81;95156.38;5066416;28;20197;-60
2023/06/02 10:45:43;;;;;;;1999.90;999.90;;;;;;;31.47;35.54;95160.25;5066628;28;20177;-60
2023/06/02 10:48:37;;;;;;;1999.90;999.90;;;;;;;30.72;36.47;95157.88;5049563;28;20193;-60